createdAt,value
2018-12-10T00:03:02.678Z,1.17
2018-12-10T00:05:32.541Z,1.07
2018-12-10T00:08:02.747Z,1.10
2018-12-10T00:10:32.610Z,1.10
2018-12-10T00:13:05.256Z,0.70
2018-12-10T00:15:35.519Z,1.00
2018-12-10T00:18:05.671Z,1.00
2018-12-10T00:20:35.455Z,1.10
2018-12-10T00:23:05.271Z,0.93
2018-12-10T00:25:35.407Z,0.87
2018-12-10T00:28:05.495Z,1.17
2018-12-10T00:30:35.584Z,1.10
2018-12-10T00:33:05.259Z,1.07
2018-12-10T00:44:43.068Z,1.10
2018-12-10T00:47:13.966Z,1.17
2018-12-10T00:49:43.931Z,1.43
2018-12-10T00:52:14.072Z,1.17
2018-12-10T00:54:43.734Z,1.40
2018-12-10T00:57:13.666Z,1.57
2018-12-10T00:59:43.407Z,1.50
2018-12-10T01:02:13.517Z,1.60
2018-12-10T01:07:44.615Z,1.30
2018-12-10T01:10:12.974Z,1.50
2018-12-10T01:12:40.512Z,1.53
2018-12-10T01:18:13.482Z,1.50
2018-12-10T01:20:46.271Z,1.73
2018-12-10T01:23:16.710Z,1.77
2018-12-10T01:25:46.455Z,1.50
2018-12-10T01:31:19.195Z,1.77
2018-12-10T01:33:48.949Z,1.40
2018-12-10T01:36:18.882Z,1.73
2018-12-10T01:38:47.787Z,1.53
2018-12-10T01:41:24.337Z,1.10
2018-12-10T01:43:54.319Z,1.20
2018-12-10T01:46:24.573Z,1.10
2018-12-10T01:48:54.660Z,1.20
2018-12-10T01:51:24.546Z,1.67
2018-12-10T01:53:54.640Z,1.60
2018-12-10T01:56:24.555Z,1.40
2018-12-10T01:58:54.627Z,1.20
2018-12-10T02:01:27.318Z,1.60
2018-12-10T02:03:57.476Z,1.50
2018-12-10T02:06:27.422Z,1.37
2018-12-10T02:08:57.291Z,0.97
2018-12-10T02:11:27.139Z,1.00
2018-12-10T02:13:56.811Z,1.53
2018-12-10T02:16:26.735Z,1.33
2018-12-10T02:18:56.347Z,0.77
2018-12-10T02:21:26.245Z,0.90
2018-12-10T02:23:54.184Z,0.90
2018-12-10T02:26:24.181Z,0.80
2018-12-10T02:28:57.785Z,0.90
2018-12-10T02:31:27.938Z,0.80
2018-12-10T02:33:58.788Z,0.60
2018-12-10T02:36:28.762Z,0.73
2018-12-10T02:38:59.126Z,0.67
2018-12-10T02:41:29.079Z,0.70
2018-12-10T02:43:57.070Z,0.73
2018-12-10T02:46:27.143Z,0.60
2018-12-10T02:48:57.305Z,0.50
2018-12-10T02:51:27.494Z,0.43
2018-12-10T02:53:57.602Z,0.40
2018-12-10T02:56:27.523Z,0.53
2018-12-10T02:58:57.381Z,0.60
2018-12-10T03:01:27.550Z,0.50
2018-12-10T03:07:00.891Z,0.80
2018-12-10T03:09:30.790Z,0.70
2018-12-10T03:11:59.058Z,0.73
2018-12-10T03:14:28.942Z,0.50
2018-12-10T03:16:58.840Z,0.77
2018-12-10T03:19:28.853Z,0.70
2018-12-10T03:21:56.767Z,0.60
2018-12-10T03:24:26.799Z,0.57
2018-12-10T03:26:56.873Z,0.50
2018-12-10T03:29:24.981Z,0.80
2018-12-10T03:34:58.665Z,0.63
2018-12-10T03:37:28.540Z,0.77
2018-12-10T03:39:58.372Z,0.60
2018-12-10T03:42:30.395Z,0.70
2018-12-10T03:45:01.483Z,0.80
2018-12-10T03:47:34.286Z,1.20
2018-12-10T03:50:03.831Z,1.03
2018-12-10T03:52:33.312Z,1.60
2018-12-10T03:58:06.462Z,1.70
2018-12-10T04:00:36.298Z,1.80
2018-12-10T04:06:09.342Z,2.00
2018-12-10T04:08:41.818Z,1.70
2018-12-10T04:11:11.997Z,2.17
2018-12-10T04:13:42.214Z,1.80
2018-12-10T04:16:12.518Z,1.80
2018-12-10T04:18:42.601Z,1.70
2018-12-10T04:21:15.138Z,1.80
2018-12-10T04:23:42.992Z,1.53
2018-12-10T04:26:12.758Z,2.00
2018-12-10T04:31:45.633Z,2.10
2018-12-10T04:34:18.354Z,1.83
2018-12-10T04:36:46.395Z,2.40
2018-12-10T04:39:16.238Z,1.83
2018-12-10T04:41:46.100Z,2.10
2018-12-10T04:44:17.049Z,2.30
2018-12-10T04:46:46.932Z,1.90
2018-12-10T04:52:20.024Z,1.77
2018-12-10T04:54:49.762Z,1.93
2018-12-10T04:57:19.688Z,2.20
2018-12-10T04:59:52.810Z,1.57
2018-12-10T05:05:24.492Z,2.10
2018-12-10T05:07:54.603Z,2.30
2018-12-10T05:18:24.866Z,2.40
2018-12-10T05:20:58.232Z,1.80
2018-12-10T05:23:27.939Z,1.93
2018-12-10T05:25:57.633Z,2.17
2018-12-10T05:28:27.534Z,5.60
2018-12-10T05:30:57.609Z,5.07
2018-12-10T05:33:27.458Z,5.00
2018-12-10T05:35:57.309Z,2.20
2018-12-10T05:38:28.135Z,2.73
2018-12-10T05:40:56.289Z,2.23
2018-12-10T05:43:26.170Z,2.20
2018-12-10T05:45:56.186Z,2.00
2018-12-10T05:48:26.402Z,2.50
2018-12-10T05:50:56.222Z,2.40
2018-12-10T05:53:26.389Z,2.07
2018-12-10T05:55:56.509Z,1.87
2018-12-10T05:58:26.335Z,2.30
2018-12-10T06:00:56.389Z,2.73
2018-12-10T06:03:26.443Z,2.50
2018-12-10T06:05:56.497Z,1.90
2018-12-10T06:11:32.730Z,1.97
2018-12-10T06:14:00.945Z,1.93
2018-12-10T06:16:29.096Z,2.40
2018-12-10T06:21:27.773Z,2.47
2018-12-10T06:24:00.636Z,2.13
2018-12-10T06:26:30.602Z,1.73
2018-12-10T06:29:00.674Z,2.13
2018-12-10T06:34:36.489Z,1.97
2018-12-10T06:37:06.571Z,2.07
2018-12-10T06:39:36.406Z,1.67
2018-12-10T06:42:08.333Z,1.87
2018-12-10T06:44:39.214Z,1.67
2018-12-10T06:47:09.174Z,1.10
2018-12-10T06:49:39.157Z,1.47
2018-12-10T06:55:12.093Z,1.50
2018-12-10T06:57:41.789Z,1.40
2018-12-10T07:00:11.658Z,1.60
2018-12-10T07:02:47.118Z,1.70
2018-12-10T07:05:27.174Z,1.93
2018-12-10T07:07:57.091Z,1.40
2018-12-10T07:10:26.977Z,1.17
2018-12-10T07:12:57.326Z,1.83
2018-12-10T07:15:27.330Z,2.40
2018-12-10T07:17:58.324Z,1.90
2018-12-10T07:20:28.358Z,1.50
2018-12-10T07:22:58.482Z,2.20
2018-12-10T07:25:28.530Z,1.17
2018-12-10T07:27:58.558Z,1.63
2018-12-10T07:30:26.433Z,1.87
2018-12-10T07:32:56.350Z,1.50
2018-12-10T07:35:26.447Z,1.97
2018-12-10T07:37:56.384Z,1.70
2018-12-10T07:43:29.529Z,1.63
2018-12-10T07:45:59.572Z,2.03
2018-12-10T07:48:27.256Z,1.60
2018-12-10T07:50:55.953Z,1.43
2018-12-10T07:53:25.711Z,1.40
2018-12-10T07:55:55.176Z,1.60
2018-12-10T07:58:25.061Z,1.60
2018-12-10T08:00:54.930Z,1.97
2018-12-10T08:03:24.578Z,1.80
2018-12-10T08:05:54.214Z,1.63
2018-12-10T08:08:26.849Z,1.73
2018-12-10T08:10:56.724Z,1.33
2018-12-10T08:13:26.334Z,1.20
2018-12-10T08:15:56.326Z,1.70
2018-12-10T08:18:28.726Z,1.63
2018-12-10T08:21:02.397Z,1.47
2018-12-10T08:25:59.656Z,1.43
2018-12-10T08:28:29.531Z,2.07
2018-12-10T08:31:03.482Z,1.47
2018-12-10T08:33:33.549Z,1.47
2018-12-10T08:36:03.399Z,1.40
2018-12-10T08:38:32.919Z,1.77
2018-12-10T08:41:02.785Z,1.27
2018-12-10T08:43:32.335Z,1.40
2018-12-10T08:46:04.693Z,1.73
2018-12-10T08:48:35.504Z,1.40
2018-12-10T08:51:05.219Z,1.50
2018-12-10T08:53:35.822Z,1.90
2018-12-10T08:56:09.198Z,2.13
2018-12-10T08:58:38.946Z,2.73
2018-12-10T09:01:08.542Z,2.63
2018-12-10T09:03:38.149Z,1.93
2018-12-10T09:06:07.918Z,2.80
2018-12-10T09:08:37.414Z,2.70
2018-12-10T09:11:05.249Z,2.30
2018-12-10T09:13:34.784Z,2.37
2018-12-10T09:16:04.405Z,2.20
2018-12-10T09:18:34.017Z,2.70
2018-12-10T09:21:03.572Z,2.67
2018-12-10T09:23:33.291Z,2.83
2018-12-10T09:26:03.166Z,2.50
2018-12-10T09:31:01.009Z,2.70
2018-12-10T09:33:30.809Z,3.17
2018-12-10T09:36:00.434Z,3.10
2018-12-10T09:38:28.233Z,2.63
2018-12-10T09:40:57.844Z,2.70
2018-12-10T09:43:28.149Z,2.50
2018-12-10T09:45:57.971Z,2.97
2018-12-10T09:48:27.629Z,3.50
2018-12-10T09:50:57.231Z,4.70
2018-12-10T09:53:29.885Z,3.57
2018-12-10T09:55:59.587Z,2.50
2018-12-10T09:58:29.378Z,4.03
2018-12-10T10:00:58.790Z,4.33
2018-12-10T10:03:28.307Z,3.57
2018-12-10T10:05:58.852Z,4.27
2018-12-10T10:08:28.706Z,4.00
2018-12-10T10:10:58.154Z,4.90
2018-12-10T10:13:27.694Z,5.50
2018-12-10T10:15:57.314Z,4.47
2018-12-10T10:18:26.968Z,4.90
2018-12-10T10:20:56.629Z,4.23
2018-12-10T10:23:26.323Z,3.80
2018-12-10T10:25:54.265Z,3.80
2018-12-10T10:28:23.910Z,5.30
2018-12-10T10:30:53.693Z,4.40
2018-12-10T10:33:23.562Z,4.37
2018-12-10T10:35:55.995Z,3.90
2018-12-10T10:38:25.664Z,3.70
2018-12-10T10:40:55.315Z,3.90
2018-12-10T10:43:25.063Z,3.30
2018-12-10T10:45:54.915Z,3.70
2018-12-10T10:48:25.200Z,3.37
2018-12-10T10:50:55.701Z,3.10
2018-12-10T10:53:25.153Z,2.60
2018-12-10T10:55:54.827Z,3.17
2018-12-10T10:58:24.223Z,2.87
2018-12-10T11:00:59.988Z,3.13
2018-12-10T11:03:35.960Z,3.17
2018-12-10T11:06:06.296Z,2.63
2018-12-10T11:08:36.534Z,2.73
2018-12-10T11:11:06.237Z,2.43
2018-12-10T11:13:35.719Z,2.50
2018-12-10T11:16:05.335Z,2.10
2018-12-10T11:18:34.908Z,2.07
2018-12-10T11:21:04.597Z,2.20
2018-12-10T11:23:34.318Z,1.80
2018-12-10T11:26:03.952Z,2.50
2018-12-10T11:28:36.522Z,3.83
2018-12-10T11:31:06.266Z,1.97
2018-12-10T11:33:36.113Z,2.50
2018-12-10T11:36:05.719Z,2.03
2018-12-10T11:38:35.473Z,1.73
2018-12-10T11:41:05.343Z,1.57
2018-12-10T11:43:35.125Z,1.50
2018-12-10T11:46:05.555Z,1.47
2018-12-10T11:48:35.458Z,1.43
2018-12-10T11:51:08.014Z,1.80
2018-12-10T11:53:35.522Z,1.17
2018-12-10T11:56:05.222Z,1.43
2018-12-10T11:58:34.745Z,1.43
2018-12-10T12:01:07.406Z,1.53
2018-12-10T12:03:37.340Z,2.20
2018-12-10T12:06:06.944Z,2.33
2018-12-10T12:08:36.670Z,1.73
2018-12-10T12:11:06.057Z,1.77
2018-12-10T12:13:35.930Z,1.50
2018-12-10T12:16:05.697Z,1.40
2018-12-10T12:18:38.074Z,1.87
2018-12-10T12:21:10.562Z,1.20
2018-12-10T12:23:40.490Z,1.93
2018-12-10T12:26:10.093Z,1.97
2018-12-10T12:28:40.014Z,1.47
2018-12-10T12:31:09.645Z,1.47
2018-12-10T12:33:42.009Z,1.30
2018-12-10T12:36:12.086Z,1.40
2018-12-10T12:38:41.705Z,1.50
2018-12-10T12:41:12.095Z,3.00
2018-12-10T12:43:42.030Z,2.37
2018-12-10T12:46:09.939Z,3.20
2018-12-10T12:48:42.541Z,2.03
2018-12-10T12:51:16.009Z,1.83
2018-12-10T12:53:45.970Z,1.30
2018-12-10T12:56:19.716Z,0.97
2018-12-10T12:58:49.387Z,0.80
2018-12-10T13:01:19.186Z,0.70
2018-12-10T13:03:48.817Z,1.00
2018-12-10T13:06:18.512Z,1.10
2018-12-10T13:08:50.953Z,1.60
2018-12-10T13:11:20.846Z,2.17
2018-12-10T13:13:50.318Z,1.70
2018-12-10T13:16:19.917Z,1.67
2018-12-10T13:18:52.374Z,1.80
2018-12-10T13:21:22.118Z,1.77
2018-12-10T13:23:51.725Z,1.67
2018-12-10T13:26:19.320Z,1.10
2018-12-10T13:28:49.063Z,1.70
2018-12-10T13:31:18.757Z,1.33
2018-12-10T13:33:48.331Z,1.63
2018-12-10T13:36:17.853Z,1.70
2018-12-10T13:38:48.305Z,1.90
2018-12-10T13:41:18.018Z,1.87
2018-12-10T13:43:48.589Z,2.10
2018-12-10T13:46:19.033Z,1.80
2018-12-10T13:48:48.450Z,1.77
2018-12-10T13:51:18.037Z,1.47
2018-12-10T13:53:47.527Z,1.53
2018-12-10T13:56:17.194Z,2.23
2018-12-10T13:58:47.012Z,1.70
2018-12-10T14:01:16.591Z,2.20
2018-12-10T14:03:46.714Z,2.00
2018-12-10T14:06:14.803Z,14.17
2018-12-10T14:08:44.849Z,6.17
2018-12-10T14:11:17.331Z,5.40
2018-12-10T14:13:47.097Z,3.03
2018-12-10T14:16:16.990Z,3.17
2018-12-10T14:18:45.064Z,5.30
2018-12-10T14:21:17.603Z,4.27
2018-12-10T14:23:47.389Z,5.30
2018-12-10T14:26:17.027Z,3.53
2018-12-10T14:28:47.043Z,3.20
2018-12-10T14:31:17.306Z,3.03
2018-12-10T14:33:47.070Z,3.63
2018-12-10T14:36:17.494Z,2.60
2018-12-10T14:38:47.106Z,3.43
2018-12-10T14:41:16.754Z,3.23
2018-12-10T14:51:13.941Z,2.40
2018-12-10T14:53:43.477Z,3.47
2018-12-10T14:56:12.966Z,3.37
2018-12-10T14:58:42.517Z,4.00
2018-12-10T15:01:12.266Z,3.63
2018-12-10T15:03:42.794Z,4.17
2018-12-10T15:09:30.075Z,3.10
2018-12-10T15:11:59.610Z,4.63
2018-12-10T15:14:29.370Z,4.00
2018-12-10T15:16:59.286Z,5.80
2018-12-10T15:19:28.814Z,4.20
2018-12-10T15:21:58.569Z,5.77
2018-12-10T15:24:28.361Z,4.53
2018-12-10T15:26:58.007Z,6.00
2018-12-10T15:29:27.761Z,8.17
2018-12-10T15:31:57.430Z,3.97
2018-12-10T15:34:25.940Z,4.30
2018-12-10T15:36:55.655Z,7.53
2018-12-10T15:39:25.312Z,6.63
2018-12-10T15:41:55.031Z,4.37
2018-12-10T15:44:27.513Z,2.83
2018-12-10T15:46:55.361Z,5.07
2018-12-10T15:49:25.224Z,3.50
2018-12-10T15:51:54.900Z,4.33
2018-12-10T16:01:48.321Z,2.47
2018-12-10T16:04:18.030Z,2.50
2018-12-10T16:06:47.837Z,2.03
2018-12-10T16:09:17.357Z,2.20
2018-12-10T16:11:49.708Z,2.10
2018-12-10T16:14:19.621Z,2.30
2018-12-10T16:16:51.070Z,2.53
2018-12-10T16:19:20.499Z,2.20
2018-12-10T16:21:50.179Z,2.80
2018-12-10T16:24:22.457Z,7.20
2018-12-10T16:26:52.309Z,2.10
2018-12-10T16:29:25.797Z,2.90
2018-12-10T16:31:55.722Z,2.97
2018-12-10T16:34:23.434Z,9.73
2018-12-10T16:36:53.331Z,4.20
2018-12-10T16:39:22.920Z,3.03
2018-12-10T16:41:52.532Z,3.47
2018-12-10T16:44:20.209Z,2.40
2018-12-10T16:46:49.973Z,1.73
2018-12-10T16:49:19.851Z,2.27
2018-12-10T16:51:50.376Z,3.53
2018-12-10T16:54:21.041Z,3.87
2018-12-10T16:56:51.601Z,2.77
2018-12-10T16:59:21.877Z,3.00
2018-12-10T17:01:52.323Z,2.10
2018-12-10T17:06:54.865Z,2.47
2018-12-10T17:09:25.518Z,2.20
2018-12-10T17:11:56.117Z,2.40
2018-12-10T17:14:26.415Z,1.87
2018-12-10T17:16:59.442Z,1.70
2018-12-10T17:19:29.262Z,2.00
2018-12-10T17:22:01.860Z,2.20
2018-12-10T17:24:30.547Z,1.73
2018-12-10T17:27:00.132Z,2.00
2018-12-10T17:29:29.923Z,2.33
2018-12-10T17:31:59.545Z,2.13
2018-12-10T17:34:29.269Z,2.33
2018-12-10T17:36:56.978Z,2.10
2018-12-10T17:39:27.245Z,1.60
2018-12-10T17:41:57.161Z,2.30
2018-12-10T17:44:27.590Z,2.10
2018-12-10T17:47:00.163Z,1.87
2018-12-10T17:49:30.347Z,1.90
2018-12-10T17:51:59.813Z,1.97
2018-12-10T17:54:29.623Z,2.20
2018-12-10T17:57:00.962Z,2.30
2018-12-10T17:59:30.864Z,2.07
2018-12-10T18:02:00.357Z,2.60
2018-12-10T18:04:30.178Z,2.63
2018-12-10T18:07:02.998Z,2.37
2018-12-10T18:16:59.037Z,2.90
2018-12-10T18:19:30.144Z,2.97
2018-12-10T18:22:00.306Z,3.30
2018-12-10T18:24:29.715Z,2.57
2018-12-10T18:26:59.510Z,3.00
2018-12-10T18:29:29.265Z,3.10
2018-12-10T18:31:58.807Z,2.27
2018-12-10T18:34:28.414Z,2.07
2018-12-10T18:36:58.305Z,2.70
2018-12-10T18:39:31.589Z,1.80
2018-12-10T18:42:01.459Z,0.70
2018-12-10T18:44:30.881Z,1.23
2018-12-10T18:47:00.630Z,0.70
2018-12-10T18:49:30.230Z,0.70
2018-12-10T18:52:00.187Z,0.70
2018-12-10T18:54:29.757Z,0.80
2018-12-10T18:56:59.413Z,0.60
2018-12-10T18:59:29.106Z,0.70
2018-12-10T19:01:59.130Z,1.13
2018-12-10T19:04:28.757Z,0.77
2018-12-10T19:07:00.057Z,1.47
2018-12-10T19:09:29.799Z,1.20
2018-12-10T19:11:59.673Z,1.40
2018-12-10T19:14:30.030Z,1.40
2018-12-10T19:16:59.558Z,1.40
2018-12-10T19:21:58.128Z,1.40
2018-12-10T19:24:27.891Z,1.50
2018-12-10T19:26:57.509Z,1.97
2018-12-10T19:29:27.272Z,1.87
2018-12-10T19:31:59.798Z,1.80
2018-12-10T19:34:29.524Z,2.13
2018-12-10T19:36:59.271Z,2.00
2018-12-10T19:39:28.775Z,2.47
2018-12-10T19:42:01.260Z,1.97
2018-12-10T19:44:34.769Z,2.17
2018-12-10T19:47:04.450Z,2.00
2018-12-10T19:49:32.119Z,2.60
2018-12-10T19:51:59.537Z,2.03
2018-12-10T19:54:29.195Z,2.57
2018-12-10T19:56:58.822Z,2.97
2018-12-10T19:59:28.943Z,3.10
2018-12-10T20:01:56.783Z,2.47
2018-12-10T20:04:24.261Z,2.90
2018-12-10T20:07:00.202Z,2.53
2018-12-10T20:09:30.733Z,2.23
2018-12-10T20:12:00.323Z,2.87
2018-12-10T20:14:30.077Z,3.00
2018-12-10T20:17:02.633Z,3.42
2018-12-10T20:19:30.190Z,4.00
2018-12-10T20:22:01.272Z,3.87
2018-12-10T20:24:34.490Z,3.73
2018-12-10T20:27:04.043Z,3.13
2018-12-10T20:29:33.753Z,3.50
2018-12-10T20:32:01.615Z,3.70
2018-12-10T20:34:52.031Z,3.83
2018-12-10T20:37:24.760Z,3.93
2018-12-10T20:39:57.763Z,4.20
2018-12-10T20:42:28.656Z,5.10
2018-12-10T20:44:57.976Z,4.17
2018-12-10T20:47:27.784Z,4.73
2018-12-10T20:50:00.255Z,4.80
2018-12-10T20:52:28.174Z,4.33
2018-12-10T20:54:58.025Z,4.40
2018-12-10T20:57:27.893Z,4.37
2018-12-10T20:59:57.464Z,4.70
2018-12-10T21:02:29.191Z,4.60
2018-12-10T21:04:59.588Z,3.80
2018-12-10T21:07:29.230Z,4.47
2018-12-10T21:09:59.193Z,4.57
2018-12-10T21:12:28.871Z,3.77
2018-12-10T21:15:00.575Z,4.47
2018-12-10T21:17:31.343Z,4.20
2018-12-10T21:20:01.077Z,4.47
2018-12-10T21:22:30.987Z,4.33
2018-12-10T21:25:01.526Z,4.93
2018-12-10T21:27:34.021Z,3.93
2018-12-10T21:30:06.191Z,4.67
2018-12-10T21:32:36.650Z,4.50
2018-12-10T21:35:07.053Z,3.77
2018-12-10T21:37:37.712Z,4.23
2018-12-10T21:40:07.941Z,4.17
2018-12-10T21:42:38.974Z,3.93
2018-12-10T21:45:09.081Z,4.30
2018-12-10T21:47:39.984Z,4.50
2018-12-10T21:50:12.593Z,4.33
2018-12-10T21:52:42.499Z,3.90
2018-12-10T21:55:16.848Z,3.67
2018-12-10T21:57:43.848Z,3.67
2018-12-10T22:00:13.619Z,3.80
2018-12-10T22:02:43.170Z,4.07
2018-12-10T22:05:13.061Z,3.60
2018-12-10T22:07:45.469Z,3.97
2018-12-10T22:10:13.511Z,4.00
2018-12-10T22:12:43.298Z,3.70
2018-12-10T22:15:13.055Z,3.70
2018-12-10T22:17:40.636Z,3.83
2018-12-10T22:20:10.449Z,4.13
2018-12-10T22:22:40.008Z,4.20
2018-12-10T22:25:09.801Z,4.40
2018-12-10T22:27:39.328Z,4.03
2018-12-10T22:30:09.054Z,4.27
2018-12-10T22:32:38.601Z,4.23
2018-12-10T22:35:08.197Z,4.20
2018-12-10T22:37:35.798Z,4.57
2018-12-10T22:40:04.253Z,4.80
2018-12-10T22:42:34.225Z,4.93
2018-12-10T22:45:04.684Z,5.37
2018-12-10T22:47:32.797Z,5.60
2018-12-10T22:50:00.373Z,4.73
2018-12-10T22:52:30.211Z,5.20
2018-12-10T22:55:00.021Z,5.07
2018-12-10T22:57:29.712Z,5.33
2018-12-10T22:59:59.293Z,4.47
2018-12-10T23:02:28.788Z,5.13
2018-12-10T23:04:58.440Z,4.23
2018-12-10T23:07:29.226Z,3.87
2018-12-10T23:09:58.902Z,4.37
2018-12-10T23:12:31.367Z,4.13
2018-12-10T23:15:01.167Z,3.70
2018-12-10T23:17:30.923Z,3.30
2018-12-10T23:20:00.641Z,3.20
2018-12-10T23:22:32.973Z,3.60
2018-12-10T23:25:02.983Z,3.17
2018-12-10T23:27:30.547Z,3.30
2018-12-10T23:32:31.974Z,3.13
2018-12-10T23:35:01.630Z,2.97
2018-12-10T23:37:31.273Z,3.50
2018-12-10T23:40:00.917Z,2.70
2018-12-10T23:42:30.378Z,2.47
2018-12-10T23:44:59.943Z,2.93
2018-12-10T23:47:29.572Z,3.20
2018-12-10T23:49:59.373Z,3.23
2018-12-10T23:52:29.085Z,3.37
2018-12-10T23:54:58.633Z,3.00
2018-12-10T23:57:31.346Z,2.57
